Main page
METAR-TAF:

METAR-TAF

Airports :

Cambridge, England

Cambridge Airport

latitude: 52-12N, longitude: 000-11E, elevation: 15 m

Current weather observation

The report was made 9 hours and 52 minutes ago, at 16:20 UTC
Wind 12 kt from the North/Northwest
Temperature 13°C
Humidity 94%
Pressure 996 hPa
Visibility: 8000 m
Scattered clouds at a height of 500 ft
Broken clouds at a height of 1000 ft

METAR: EGSC 281620Z 33012KT 8000 SCT005 BKN010 13/12 Q0996

Time: 03:12 (02:12 UTC)

Forecast

The report was made 12 hours and 11 minutes ago, at 14:01 UTC
Forecast valid from 28 at 15 UTC to 28 at 19 UTC
Wind 9 kt from the North/Northwest
Visibility 10 km or more
Broken clouds at a height of 600 ft
Probability 30% :
Temporary
from 28 at 15 UTC to 28 at 19 UTC
Visibility: 5000 m
Broken clouds at a height of 1500 ft
light rain, mist

TAF: EGSC 281401Z 2815/2819 33009KT 9999 BKN006 PROB30 TEMPO 2815/2819 5000 -RA BR BKN015

Weather observations and forecasts of more than 4000 airports (METAR and TAF reports).

The available stations are represented by yellow and red dots on the map.

Hover mouse over dot to see the name of the station.

Then click to see weather observations and forecasts.

To change the map : click on the green buttons with a black cross to zoom in, on the green button with a dash to zoom out, or on the green arrows for adjacent maps.


METAR-TAF: